createdAt,value
2022-10-24T00:01:41.347Z,22.70
2022-10-24T00:04:09.692Z,22.80
2022-10-24T00:06:39.272Z,22.80
2022-10-24T00:09:07.551Z,22.80
2022-10-24T00:11:36.287Z,22.70
2022-10-24T00:14:04.543Z,22.70
2022-10-24T00:16:33.187Z,22.80
2022-10-24T00:19:01.379Z,22.80
2022-10-24T00:21:29.652Z,22.80
2022-10-24T00:23:59.202Z,22.80
2022-10-24T00:26:27.376Z,22.80
2022-10-24T00:28:55.643Z,22.80
2022-10-24T00:31:23.921Z,22.80
2022-10-24T00:33:52.193Z,22.80
2022-10-24T00:36:22.581Z,22.70
2022-10-24T00:38:51.543Z,22.80
2022-10-24T00:41:24.312Z,22.70
2022-10-24T00:44:13.017Z,22.70
2022-10-24T00:46:42.735Z,22.70
2022-10-24T00:49:15.041Z,22.70
2022-10-24T00:51:43.832Z,22.70
2022-10-24T00:54:14.695Z,22.70
2022-10-24T00:56:54.833Z,22.70
2022-10-24T00:59:23.439Z,22.70
2022-10-24T01:01:51.701Z,22.70
2022-10-24T01:04:19.998Z,22.70
2022-10-24T01:06:57.770Z,22.70
2022-10-24T01:09:40.550Z,22.70
2022-10-24T01:12:23.454Z,22.70
2022-10-24T01:15:01.123Z,22.70
2022-10-24T01:17:36.556Z,22.70
2022-10-24T01:20:43.983Z,22.70
2022-10-24T01:23:56.803Z,22.70
2022-10-24T01:26:44.899Z,22.70
2022-10-24T01:29:20.954Z,22.70
2022-10-24T01:31:55.587Z,22.70
2022-10-24T01:34:30.016Z,22.70
2022-10-24T01:37:02.226Z,22.70
2022-10-24T01:39:35.965Z,22.70
2022-10-24T01:42:05.664Z,22.70
2022-10-24T01:44:39.038Z,22.70
2022-10-24T01:47:13.298Z,22.70
2022-10-24T01:49:46.175Z,22.70
2022-10-24T01:52:16.942Z,22.70
2022-10-24T01:54:48.079Z,22.70
2022-10-24T01:57:16.778Z,22.70
2022-10-24T01:59:47.176Z,22.70
2022-10-24T02:02:22.699Z,22.70
2022-10-24T02:04:56.770Z,22.70
2022-10-24T02:07:28.060Z,22.70
2022-10-24T02:10:02.076Z,22.70
2022-10-24T02:12:31.242Z,22.70
2022-10-24T02:15:03.642Z,22.70
2022-10-24T02:17:33.439Z,22.70
2022-10-24T02:20:02.368Z,22.70
2022-10-24T02:22:34.755Z,22.70
2022-10-24T02:25:07.982Z,22.70
2022-10-24T02:27:41.801Z,22.70
2022-10-24T02:30:13.620Z,22.70
2022-10-24T02:32:45.621Z,22.70
2022-10-24T02:35:16.842Z,22.70
2022-10-24T02:37:48.701Z,22.70
2022-10-24T02:40:19.172Z,22.70
2022-10-24T02:42:49.972Z,22.70
2022-10-24T02:45:19.496Z,22.70
2022-10-24T02:47:51.657Z,22.70
2022-10-24T02:50:20.055Z,22.70
2022-10-24T02:52:48.755Z,22.70
2022-10-24T02:55:17.006Z,22.70
2022-10-24T02:57:45.220Z,22.70
2022-10-24T03:00:14.313Z,22.60
2022-10-24T03:02:42.755Z,22.70
2022-10-24T03:05:12.626Z,22.70
2022-10-24T03:07:40.921Z,22.70
2022-10-24T03:10:09.783Z,22.70
2022-10-24T03:12:37.955Z,22.60
2022-10-24T03:15:06.856Z,22.70
2022-10-24T03:17:35.046Z,22.60
2022-10-24T03:20:03.264Z,22.60
2022-10-24T03:22:32.897Z,22.60
2022-10-24T03:25:03.367Z,22.70
2022-10-24T03:27:33.839Z,22.70
2022-10-24T03:30:02.166Z,22.60
2022-10-24T03:32:30.346Z,22.70
2022-10-24T03:34:58.610Z,22.70
2022-10-24T03:37:26.981Z,22.60
2022-10-24T03:39:56.529Z,22.60
2022-10-24T03:42:24.907Z,22.60
2022-10-24T03:44:53.072Z,22.70
2022-10-24T03:47:21.272Z,22.60
2022-10-24T03:49:49.431Z,22.60
2022-10-24T03:52:17.679Z,22.60
2022-10-24T03:54:46.188Z,22.60
2022-10-24T03:57:15.779Z,22.60
2022-10-24T03:59:44.054Z,22.60
2022-10-24T04:02:13.758Z,22.60
2022-10-24T04:04:42.249Z,22.60
2022-10-24T04:07:10.453Z,22.60
2022-10-24T04:09:38.691Z,22.60
2022-10-24T04:12:07.209Z,22.60
2022-10-24T04:14:36.783Z,22.60
2022-10-24T04:17:05.252Z,22.60
2022-10-24T04:19:33.735Z,22.60
2022-10-24T04:22:01.966Z,22.60
2022-10-24T04:24:30.265Z,22.60
2022-10-24T04:26:58.444Z,22.60
2022-10-24T04:29:26.640Z,22.60
2022-10-24T04:31:56.199Z,22.60
2022-10-24T04:34:24.380Z,22.70
2022-10-24T04:36:52.606Z,22.70
2022-10-24T04:39:20.993Z,22.70
2022-10-24T04:41:49.199Z,22.70
2022-10-24T04:44:17.367Z,22.70
2022-10-24T04:46:49.245Z,22.70
2022-10-24T04:49:21.275Z,22.70
2022-10-24T04:51:49.511Z,22.70
2022-10-24T04:54:17.667Z,22.70
2022-10-24T04:56:45.823Z,22.70
2022-10-24T04:59:14.005Z,22.70
2022-10-24T05:01:42.208Z,22.70
2022-10-24T05:04:10.651Z,22.70
2022-10-24T05:06:42.741Z,22.70
2022-10-24T05:09:13.161Z,22.70
2022-10-24T05:11:41.806Z,22.70
2022-10-24T05:14:09.964Z,22.70
2022-10-24T05:16:39.745Z,22.70
2022-10-24T05:19:08.003Z,22.70
2022-10-24T05:21:36.135Z,22.70
2022-10-24T05:24:05.807Z,22.70
2022-10-24T05:26:33.950Z,22.70
2022-10-24T05:29:02.176Z,22.70
2022-10-24T05:33:59.413Z,22.70
2022-10-24T05:36:27.635Z,22.70
2022-10-24T05:38:55.835Z,22.70
2022-10-24T05:41:25.368Z,22.70
2022-10-24T05:43:53.524Z,22.70
2022-10-24T05:46:21.856Z,22.70
2022-10-24T05:48:50.154Z,22.70
2022-10-24T05:51:18.362Z,22.70
2022-10-24T05:53:46.719Z,22.70
2022-10-24T05:56:14.956Z,22.70
2022-10-24T05:58:44.468Z,22.70
2022-10-24T06:01:12.820Z,22.70
2022-10-24T06:03:41.016Z,22.70
2022-10-24T06:06:10.839Z,22.70
2022-10-24T06:08:39.450Z,22.70
2022-10-24T06:11:10.547Z,22.70
2022-10-24T06:13:39.435Z,22.70
2022-10-24T06:16:10.031Z,22.70
2022-10-24T06:18:38.371Z,22.70
2022-10-24T06:21:09.253Z,22.70
2022-10-24T06:23:38.008Z,22.70
2022-10-24T06:26:10.003Z,22.70
2022-10-24T06:28:38.770Z,22.70
2022-10-24T06:31:08.727Z,22.70
2022-10-24T06:33:36.926Z,22.70
2022-10-24T06:36:07.847Z,22.70
2022-10-24T06:38:37.896Z,22.70
2022-10-24T06:41:08.587Z,22.70
2022-10-24T06:43:38.183Z,22.70
2022-10-24T06:46:09.195Z,22.70
2022-10-24T06:48:38.159Z,22.80
2022-10-24T06:51:06.759Z,22.70
2022-10-24T06:53:35.232Z,22.80
2022-10-24T06:56:04.783Z,22.80
2022-10-24T06:58:33.709Z,22.80
2022-10-24T07:01:08.055Z,22.80
2022-10-24T07:03:37.967Z,22.80
2022-10-24T07:06:10.752Z,22.80
2022-10-24T07:08:39.045Z,22.80
2022-10-24T07:11:07.328Z,22.80
2022-10-24T07:13:35.474Z,22.80
2022-10-24T07:16:04.535Z,22.80
2022-10-24T07:18:33.114Z,22.80
2022-10-24T07:21:05.680Z,22.80
2022-10-24T07:23:34.531Z,22.80
2022-10-24T07:26:04.433Z,22.80
2022-10-24T07:28:32.806Z,22.80
2022-10-24T07:31:01.091Z,22.80
2022-10-24T07:33:30.027Z,22.90
2022-10-24T07:35:58.452Z,22.80
2022-10-24T07:38:28.384Z,22.80
2022-10-24T07:40:56.627Z,22.80
2022-10-24T07:43:24.904Z,22.80
2022-10-24T07:45:53.175Z,22.80
2022-10-24T07:48:21.484Z,22.80
2022-10-24T07:50:50.409Z,22.80
2022-10-24T07:53:18.615Z,22.80
2022-10-24T07:55:48.239Z,22.80
2022-10-24T07:58:16.511Z,22.80
2022-10-24T08:00:45.563Z,22.80
2022-10-24T08:03:13.960Z,22.90
2022-10-24T08:05:42.595Z,22.90
2022-10-24T08:08:27.540Z,22.90
2022-10-24T08:13:29.632Z,22.90
2022-10-24T08:15:57.859Z,22.90
2022-10-24T08:18:28.396Z,22.90
2022-10-24T08:20:59.918Z,22.90
2022-10-24T08:23:28.808Z,22.90
2022-10-24T08:25:56.987Z,22.90
2022-10-24T08:28:26.748Z,22.90
2022-10-24T08:30:59.214Z,22.90
2022-10-24T08:33:27.725Z,22.90
2022-10-24T08:36:00.013Z,22.90
2022-10-24T08:38:29.411Z,22.90
2022-10-24T08:40:58.759Z,23.00
2022-10-24T08:43:28.636Z,23.00
2022-10-24T08:46:05.382Z,23.00
2022-10-24T08:48:41.873Z,23.00
2022-10-24T08:51:24.643Z,23.00
2022-10-24T08:53:57.184Z,23.00
2022-10-24T08:56:28.688Z,23.00
2022-10-24T08:59:00.719Z,23.10
2022-10-24T09:01:32.937Z,23.10
2022-10-24T09:04:06.229Z,23.10
2022-10-24T09:06:34.651Z,23.10
2022-10-24T09:09:04.872Z,23.10
2022-10-24T09:11:50.859Z,23.10
2022-10-24T09:14:22.290Z,23.10
2022-10-24T09:16:54.385Z,23.10
2022-10-24T09:19:24.524Z,23.10
2022-10-24T09:21:54.695Z,23.10
2022-10-24T09:24:34.507Z,23.20
2022-10-24T09:27:06.336Z,23.20
2022-10-24T09:29:36.447Z,23.20
2022-10-24T09:32:05.337Z,23.20
2022-10-24T09:34:33.555Z,23.20
2022-10-24T09:37:01.738Z,23.20
2022-10-24T09:39:32.638Z,23.20
2022-10-24T09:42:02.592Z,23.20
2022-10-24T09:44:38.455Z,23.20
2022-10-24T09:47:21.042Z,23.20
2022-10-24T09:49:49.566Z,23.20
2022-10-24T09:52:22.510Z,23.20
2022-10-24T09:55:13.367Z,23.30
2022-10-24T09:57:42.165Z,23.30
2022-10-24T10:00:23.839Z,23.30
2022-10-24T10:03:03.093Z,23.30
2022-10-24T10:05:45.005Z,23.30
2022-10-24T10:08:20.446Z,23.30
2022-10-24T10:11:03.824Z,23.30
2022-10-24T10:13:37.563Z,23.30
2022-10-24T10:16:10.745Z,23.30
2022-10-24T10:18:48.461Z,23.30
2022-10-24T10:21:19.204Z,23.30
2022-10-24T10:23:48.918Z,23.30
2022-10-24T10:26:27.293Z,23.30
2022-10-24T10:29:02.389Z,23.30
2022-10-24T10:31:40.770Z,23.30
2022-10-24T10:34:21.217Z,23.40
2022-10-24T10:37:17.102Z,23.40
2022-10-24T10:40:20.778Z,23.40
2022-10-24T10:43:15.624Z,23.40
2022-10-24T10:45:48.128Z,23.40
2022-10-24T10:48:32.784Z,23.40
2022-10-24T10:51:08.310Z,23.40
2022-10-24T10:53:43.557Z,23.40
2022-10-24T10:56:25.980Z,23.40
2022-10-24T10:59:12.625Z,23.40
2022-10-24T11:01:49.791Z,23.50
2022-10-24T11:04:31.782Z,23.50
2022-10-24T11:07:06.557Z,23.50
2022-10-24T11:09:42.184Z,23.50
2022-10-24T11:12:17.052Z,23.40
2022-10-24T11:14:50.467Z,23.40
2022-10-24T11:17:24.487Z,23.40
2022-10-24T11:20:05.182Z,23.40
2022-10-24T11:22:39.352Z,23.40
2022-10-24T11:25:17.698Z,23.40
2022-10-24T11:27:51.828Z,23.40
2022-10-24T11:30:22.568Z,23.40
2022-10-24T11:32:54.477Z,23.40
2022-10-24T11:35:29.161Z,23.40
2022-10-24T11:38:00.991Z,23.40
2022-10-24T11:40:31.175Z,23.40
2022-10-24T11:43:08.298Z,23.40
2022-10-24T11:45:45.816Z,23.40
2022-10-24T11:48:20.135Z,23.40
2022-10-24T11:50:54.002Z,23.40
2022-10-24T11:53:50.830Z,23.40
2022-10-24T11:56:27.258Z,23.40
2022-10-24T11:59:00.058Z,23.40
2022-10-24T12:01:56.411Z,23.40
2022-10-24T12:04:45.644Z,23.40
2022-10-24T12:07:47.331Z,23.40
2022-10-24T12:10:35.508Z,23.40
2022-10-24T12:13:16.518Z,23.40
2022-10-24T12:15:51.302Z,23.40
2022-10-24T12:18:31.329Z,23.40
2022-10-24T12:21:04.326Z,23.40
2022-10-24T12:23:34.630Z,23.40
2022-10-24T12:26:05.107Z,23.50
2022-10-24T12:28:33.580Z,23.40
2022-10-24T12:31:25.363Z,23.40
2022-10-24T12:34:43.665Z,23.40
2022-10-24T12:37:37.150Z,23.40
2022-10-24T12:40:42.749Z,23.50
2022-10-24T12:43:30.067Z,23.40
2022-10-24T12:46:00.235Z,23.50
2022-10-24T12:48:37.000Z,23.50
2022-10-24T12:51:15.076Z,23.50
2022-10-24T12:54:02.963Z,23.50
2022-10-24T12:56:32.918Z,23.50
2022-10-24T12:59:18.811Z,23.50
2022-10-24T13:01:48.612Z,23.50
2022-10-24T13:04:55.755Z,23.50
2022-10-24T13:07:59.207Z,23.50
2022-10-24T13:10:43.788Z,23.50
2022-10-24T13:13:54.017Z,23.50
2022-10-24T13:16:34.419Z,23.50
2022-10-24T13:19:10.475Z,23.50
2022-10-24T13:21:47.755Z,23.50
2022-10-24T13:24:30.807Z,23.50
2022-10-24T13:27:30.697Z,23.50
2022-10-24T13:30:22.930Z,23.50
2022-10-24T13:32:52.797Z,23.50
2022-10-24T13:35:26.087Z,23.50
2022-10-24T13:38:00.518Z,23.50
2022-10-24T13:40:33.135Z,23.50
2022-10-24T13:43:07.429Z,23.50
2022-10-24T13:45:45.440Z,23.50
2022-10-24T13:48:18.898Z,23.50
2022-10-24T13:50:51.810Z,23.50
2022-10-24T13:53:30.360Z,23.50
2022-10-24T13:56:02.578Z,23.50
2022-10-24T13:58:42.127Z,23.50
2022-10-24T14:01:17.991Z,23.50
2022-10-24T14:03:49.164Z,23.50
2022-10-24T14:06:17.734Z,23.50
2022-10-24T14:09:00.871Z,23.50
2022-10-24T14:11:33.219Z,23.50
2022-10-24T14:14:07.062Z,23.50
2022-10-24T14:16:36.680Z,23.50
2022-10-24T14:19:21.830Z,23.50
2022-10-24T14:21:53.927Z,23.50
2022-10-24T14:24:23.434Z,23.50
2022-10-24T14:26:53.410Z,23.50
2022-10-24T14:29:23.903Z,23.50
2022-10-24T14:31:57.714Z,23.50
2022-10-24T14:34:28.893Z,23.50
2022-10-24T14:37:02.107Z,23.50
2022-10-24T14:39:30.611Z,23.50
2022-10-24T14:41:59.671Z,23.50
2022-10-24T14:44:28.933Z,23.50
2022-10-24T14:47:05.426Z,23.50
2022-10-24T14:49:38.508Z,23.60
2022-10-24T14:52:11.722Z,23.60
2022-10-24T14:54:42.867Z,23.60
2022-10-24T14:57:19.215Z,23.60
2022-10-24T14:59:50.943Z,23.70
2022-10-24T15:02:23.201Z,23.70
2022-10-24T15:04:54.114Z,23.70
2022-10-24T15:07:30.766Z,23.70
2022-10-24T15:10:00.795Z,23.60
2022-10-24T15:12:33.920Z,23.60
2022-10-24T15:15:22.726Z,23.60
2022-10-24T15:17:51.898Z,23.60
2022-10-24T15:20:24.161Z,23.60
2022-10-24T15:22:55.877Z,23.60
2022-10-24T15:25:28.692Z,23.60
2022-10-24T15:28:00.141Z,23.60
2022-10-24T15:30:30.361Z,23.60
2022-10-24T15:33:00.555Z,23.60
2022-10-24T15:35:31.522Z,23.70
2022-10-24T15:38:02.072Z,23.70
2022-10-24T15:40:32.602Z,23.70
2022-10-24T15:43:01.315Z,23.70
2022-10-24T15:45:29.763Z,23.70
2022-10-24T15:47:57.971Z,23.70
2022-10-24T15:50:26.149Z,23.70
2022-10-24T15:52:56.915Z,23.70
2022-10-24T15:55:27.323Z,23.60
2022-10-24T15:57:57.037Z,23.60
2022-10-24T16:00:26.050Z,23.60
2022-10-24T16:02:56.704Z,23.60
2022-10-24T16:05:28.299Z,23.60
2022-10-24T16:07:57.851Z,23.60
2022-10-24T16:10:26.066Z,23.60
2022-10-24T16:12:54.219Z,23.60
2022-10-24T16:15:24.860Z,23.60
2022-10-24T16:17:53.242Z,23.60
2022-10-24T16:20:22.062Z,23.60
2022-10-24T16:22:50.314Z,23.60
2022-10-24T16:25:24.080Z,23.60
2022-10-24T16:27:52.761Z,23.60
2022-10-24T16:30:23.472Z,23.60
2022-10-24T16:32:51.764Z,23.60
2022-10-24T16:35:23.722Z,23.60
2022-10-24T16:37:51.954Z,23.60
2022-10-24T16:40:22.289Z,23.60
2022-10-24T16:42:51.168Z,23.60
2022-10-24T16:45:20.062Z,23.60
2022-10-24T16:47:48.885Z,23.60
2022-10-24T16:50:21.209Z,23.50
2022-10-24T16:52:49.459Z,23.50
2022-10-24T16:55:17.714Z,23.50
2022-10-24T16:57:47.564Z,23.50
2022-10-24T17:00:17.758Z,23.50
2022-10-24T17:02:46.941Z,23.50
2022-10-24T17:05:16.238Z,23.50
2022-10-24T17:07:44.757Z,23.50
2022-10-24T17:10:14.284Z,23.50
2022-10-24T17:12:43.782Z,23.50
2022-10-24T17:15:16.743Z,23.50
2022-10-24T17:17:47.045Z,23.50
2022-10-24T17:20:15.759Z,23.50
2022-10-24T17:22:45.575Z,23.50
2022-10-24T17:25:20.116Z,23.50
2022-10-24T17:27:49.233Z,23.50
2022-10-24T17:30:21.751Z,23.50
2022-10-24T17:32:50.495Z,23.50
2022-10-24T17:35:21.692Z,23.50
2022-10-24T17:38:11.564Z,23.50
2022-10-24T17:40:43.102Z,23.50
2022-10-24T17:43:20.323Z,23.50
2022-10-24T17:45:51.587Z,23.50
2022-10-24T17:48:20.214Z,23.50
2022-10-24T17:50:48.754Z,23.50
2022-10-24T17:53:18.810Z,23.50
2022-10-24T17:55:47.956Z,23.40
2022-10-24T17:58:16.863Z,23.40
2022-10-24T18:00:45.860Z,23.50
2022-10-24T18:03:16.012Z,23.40
2022-10-24T18:05:44.310Z,23.40
2022-10-24T18:08:14.315Z,23.40
2022-10-24T18:10:43.033Z,23.40
2022-10-24T18:13:11.406Z,23.40
2022-10-24T18:15:39.616Z,23.40
2022-10-24T18:18:08.210Z,23.40
2022-10-24T18:20:38.080Z,23.40
2022-10-24T18:23:06.259Z,23.40
2022-10-24T18:25:34.431Z,23.40
2022-10-24T18:28:02.579Z,23.40
2022-10-24T18:30:30.918Z,23.40
2022-10-24T18:32:59.029Z,23.40
2022-10-24T18:35:28.784Z,23.40
2022-10-24T18:37:58.380Z,23.40
2022-10-24T18:40:26.917Z,23.40
2022-10-24T18:42:59.735Z,23.40
2022-10-24T18:45:29.205Z,23.40
2022-10-24T18:47:57.935Z,23.40
2022-10-24T18:50:27.060Z,23.30
2022-10-24T18:53:02.499Z,23.30
2022-10-24T18:55:32.446Z,23.30
2022-10-24T18:58:01.676Z,23.30
2022-10-24T19:00:32.216Z,23.40
2022-10-24T19:03:18.010Z,23.40
2022-10-24T19:05:51.858Z,23.40
2022-10-24T19:08:25.967Z,23.30
2022-10-24T19:10:56.278Z,23.30
2022-10-24T19:13:25.318Z,23.30
2022-10-24T19:15:57.620Z,23.30
2022-10-24T19:18:26.798Z,23.30
2022-10-24T19:20:55.101Z,23.30
2022-10-24T19:23:24.811Z,23.30
2022-10-24T19:25:53.654Z,23.30
2022-10-24T19:28:22.389Z,23.30
2022-10-24T19:30:50.730Z,23.30
2022-10-24T19:33:18.930Z,23.30
2022-10-24T19:35:47.739Z,23.30
2022-10-24T19:38:16.180Z,23.30
2022-10-24T19:40:51.585Z,23.30
2022-10-24T19:43:19.861Z,23.30
2022-10-24T19:45:50.414Z,23.30
2022-10-24T19:48:32.612Z,23.30
2022-10-24T19:51:04.257Z,23.30
2022-10-24T19:53:35.470Z,23.30
2022-10-24T19:56:09.674Z,23.30
2022-10-24T19:58:38.279Z,23.30
2022-10-24T20:01:08.217Z,23.30
2022-10-24T20:03:37.191Z,23.30
2022-10-24T20:06:05.906Z,23.30
2022-10-24T20:08:34.223Z,23.30
2022-10-24T20:11:03.167Z,23.30
2022-10-24T20:13:32.867Z,23.30
2022-10-24T20:16:03.709Z,23.30
2022-10-24T20:18:33.729Z,23.30
2022-10-24T20:21:04.042Z,23.30
2022-10-24T20:23:32.796Z,23.30
2022-10-24T20:26:02.888Z,23.30
2022-10-24T20:28:34.972Z,23.30
2022-10-24T20:31:03.246Z,23.30
2022-10-24T20:33:31.493Z,23.30
2022-10-24T20:36:00.218Z,23.30
2022-10-24T20:38:28.911Z,23.30
2022-10-24T20:41:02.383Z,23.30
2022-10-24T20:43:31.859Z,23.30
2022-10-24T20:46:00.020Z,23.30
2022-10-24T20:48:28.112Z,23.30
2022-10-24T20:50:56.191Z,23.20
2022-10-24T20:53:24.279Z,23.20
2022-10-24T20:55:52.322Z,23.20
2022-10-24T20:58:20.445Z,23.20
2022-10-24T21:00:50.031Z,23.20
2022-10-24T21:03:18.143Z,23.20
2022-10-24T21:05:46.218Z,23.20
2022-10-24T21:08:14.305Z,23.20
2022-10-24T21:10:42.429Z,23.20
2022-10-24T21:13:10.525Z,23.20
2022-10-24T21:15:38.625Z,23.20
2022-10-24T21:18:08.136Z,23.20
2022-10-24T21:20:37.174Z,23.20
2022-10-24T21:23:05.310Z,23.20
2022-10-24T21:25:33.489Z,23.20
2022-10-24T21:28:01.619Z,23.20
2022-10-24T21:30:29.770Z,23.20
2022-10-24T21:32:58.102Z,23.20
2022-10-24T21:35:27.784Z,23.20
2022-10-24T21:37:55.968Z,23.20
2022-10-24T21:40:24.113Z,23.20
2022-10-24T21:42:52.346Z,23.20
2022-10-24T21:45:20.475Z,23.20
2022-10-24T21:47:48.644Z,23.20
2022-10-24T21:50:16.960Z,23.20
2022-10-24T21:52:46.864Z,23.20
2022-10-24T21:55:15.310Z,23.20
2022-10-24T21:57:43.458Z,23.20
2022-10-24T22:00:13.135Z,23.20
2022-10-24T22:02:41.454Z,23.20
2022-10-24T22:05:10.029Z,23.20
2022-10-24T22:07:38.172Z,23.20
2022-10-24T22:10:09.086Z,23.20
2022-10-24T22:12:37.262Z,23.20
2022-10-24T22:15:06.219Z,23.20
2022-10-24T22:17:34.379Z,23.20
2022-10-24T22:20:02.519Z,23.20
2022-10-24T22:22:30.661Z,23.10
2022-10-24T22:24:58.770Z,23.10
2022-10-24T22:27:28.306Z,23.10
2022-10-24T22:29:56.448Z,23.10
2022-10-24T22:32:24.997Z,23.10
2022-10-24T22:34:53.786Z,23.10
2022-10-24T22:37:28.527Z,23.10
2022-10-24T22:39:57.243Z,23.10
2022-10-24T22:42:25.693Z,23.10
2022-10-24T22:44:56.384Z,23.10
2022-10-24T22:47:44.722Z,23.10
2022-10-24T22:50:33.703Z,23.10
2022-10-24T22:53:02.483Z,23.10
2022-10-24T22:55:35.896Z,23.10
2022-10-24T22:58:04.791Z,23.10
2022-10-24T23:00:34.787Z,23.10
2022-10-24T23:03:16.663Z,23.10
2022-10-24T23:08:32.606Z,23.10
2022-10-24T23:11:01.262Z,23.10
2022-10-24T23:13:30.311Z,23.10
2022-10-24T23:16:06.724Z,23.10
2022-10-24T23:18:35.581Z,23.10
2022-10-24T23:21:12.342Z,23.10
2022-10-24T23:23:41.295Z,23.10
2022-10-24T23:26:29.580Z,23.10
2022-10-24T23:29:04.205Z,23.00
2022-10-24T23:31:34.257Z,23.00
2022-10-24T23:34:03.034Z,23.10
2022-10-24T23:36:31.646Z,23.00
2022-10-24T23:39:00.467Z,23.00
2022-10-24T23:41:29.105Z,23.00
2022-10-24T23:43:57.877Z,23.00
2022-10-24T23:46:29.140Z,23.00
2022-10-24T23:49:18.704Z,23.00
2022-10-24T23:51:56.391Z,23.00
2022-10-24T23:54:28.216Z,23.00
2022-10-24T23:56:57.043Z,23.00
2022-10-24T23:59:25.202Z,23.00
